Absecon Heights, New Jersey
Current Conditions -  °F | °C
As of 2:24 AM on Thursday 23 Oct 2014 (Local Time) from KACY Reporting Station
Light Rain Light Rain  
Wind Chill: 51°   Ceiling: 1000
Heat Index: 51°   Visibility: 4mi
Dew Point: 49°   Wind: 15mph
Humidity: 92%   Direction: 330°NNW
Pressure: 29.69"   Gusts: NA
Location:  39.4315°N, 74.5003°W
Report Text: KACY 230624Z 33013KT 4SM -RA BR BKN010 OVC016 11/09 A2969 RMK AO2 RAB0558 CIG 008V013 P0000 T01060094
Loading
Personal Weather Stations






























Interactive Weather Map
Tropical Storm Tracking
New forecast layout! Learn more

10-Day Weather Forecast

Advertisements
Track Severe Weather on mobile